createdAt,value
2023-03-11T00:00:16.218Z,93620.66
2023-03-11T00:02:44.117Z,93616.53
2023-03-11T00:05:15.661Z,93620.72
2023-03-11T00:07:43.435Z,93625.66
2023-03-11T00:10:15.077Z,93630.44
2023-03-11T00:12:42.846Z,93637.19
2023-03-11T00:15:11.608Z,93643.38
2023-03-11T00:17:39.345Z,93648.38
2023-03-11T00:20:08.506Z,93661.19
2023-03-11T00:22:37.518Z,93650.25
2023-03-11T00:25:05.771Z,93639.44
2023-03-11T00:27:33.460Z,93650.63
2023-03-11T00:30:01.223Z,93644.75
2023-03-11T00:32:28.887Z,93660.16
2023-03-11T00:34:56.575Z,93658.88
2023-03-11T00:37:24.304Z,93656.78
2023-03-11T00:39:53.360Z,93651.44
2023-03-11T00:42:21.097Z,93654.47
2023-03-11T00:44:48.961Z,93649.50
2023-03-11T00:47:16.751Z,93657.63
2023-03-11T00:49:44.451Z,93666.06
2023-03-11T00:52:12.330Z,93668.88
2023-03-11T00:54:40.047Z,93669.84
2023-03-11T00:57:09.149Z,93673.94
2023-03-11T00:59:36.968Z,93672.75
2023-03-11T01:02:04.868Z,93681.22
2023-03-11T01:04:32.740Z,93684.09
2023-03-11T01:07:00.418Z,93669.16
2023-03-11T01:09:28.246Z,93665.69
2023-03-11T01:11:56.011Z,93660.63
2023-03-11T01:14:25.200Z,93664.78
2023-03-11T01:16:53.754Z,93664.53
2023-03-11T01:19:21.426Z,93657.56
2023-03-11T01:21:49.157Z,93664.09
2023-03-11T01:24:16.880Z,93672.16
2023-03-11T01:26:44.829Z,93669.09
2023-03-11T01:29:12.674Z,93665.59
2023-03-11T01:31:41.695Z,93664.19
2023-03-11T01:34:09.492Z,93655.91
2023-03-11T01:36:37.242Z,93661.50
2023-03-11T01:39:05.316Z,93674.09
2023-03-11T01:41:33.015Z,93670.91
2023-03-11T01:44:00.634Z,93674.38
2023-03-11T01:46:29.690Z,93674.47
2023-03-11T01:48:59.784Z,93675.63
2023-03-11T01:51:30.402Z,93685.34
2023-03-11T01:53:59.066Z,93674.38
2023-03-11T01:56:26.901Z,93668.94
2023-03-11T01:58:55.312Z,93676.78
2023-03-11T02:01:24.035Z,93673.66
2023-03-11T02:03:52.121Z,93684.38
2023-03-11T02:06:23.185Z,93682.72
2023-03-11T02:08:51.404Z,93661.84
2023-03-11T02:11:23.967Z,93672.28
2023-03-11T02:13:52.454Z,93681.50
2023-03-11T02:16:20.111Z,93679.09
2023-03-11T02:18:47.771Z,93690.47
2023-03-11T02:21:26.395Z,93690.31
2023-03-11T02:23:59.232Z,93688.06
2023-03-11T02:26:30.926Z,93701.63
2023-03-11T02:29:00.629Z,93708.66
2023-03-11T02:31:29.509Z,93698.50
2023-03-11T02:33:59.149Z,93706.94
2023-03-11T02:36:37.609Z,93725.69
2023-03-11T02:39:06.129Z,93714.75
2023-03-11T02:41:36.601Z,93715.78
2023-03-11T02:44:06.110Z,93731.72
2023-03-11T02:46:34.223Z,93722.47
2023-03-11T02:49:02.461Z,93718.59
2023-03-11T02:51:30.229Z,93718.28
2023-03-11T02:54:00.556Z,93739.97
2023-03-11T02:56:28.715Z,93707.31
2023-03-11T02:58:56.465Z,93711.25
2023-03-11T03:01:25.685Z,93725.06
2023-03-11T03:03:53.496Z,93737.63
2023-03-11T03:06:21.225Z,93725.28
2023-03-11T03:08:49.011Z,93721.91
2023-03-11T03:11:17.000Z,93730.44
2023-03-11T03:13:44.710Z,93733.75
2023-03-11T03:16:12.568Z,93737.47
2023-03-11T03:18:41.674Z,93738.53
2023-03-11T03:21:09.416Z,93743.88
2023-03-11T03:23:37.828Z,93731.50
2023-03-11T03:26:05.920Z,93740.16
2023-03-11T03:28:33.952Z,93750.81
2023-03-11T03:31:05.300Z,93751.41
2023-03-11T03:33:33.074Z,93745.22
2023-03-11T03:36:02.173Z,93752.63
2023-03-11T03:38:29.909Z,93747.25
2023-03-11T03:40:57.540Z,93755.72
2023-03-11T03:43:25.443Z,93738.88
2023-03-11T03:46:00.484Z,93738.94
2023-03-11T03:48:28.358Z,93726.78
2023-03-11T03:50:56.096Z,93735.97
2023-03-11T03:53:25.100Z,93749.06
2023-03-11T03:55:54.634Z,93743.72
2023-03-11T03:58:22.364Z,93758.75
2023-03-11T04:00:50.014Z,93758.56
2023-03-11T04:03:17.694Z,93760.00
2023-03-11T04:05:45.406Z,93756.84
2023-03-11T04:08:13.035Z,93763.88
2023-03-11T04:10:42.052Z,93755.00
2023-03-11T04:13:09.649Z,93749.28
2023-03-11T04:15:38.904Z,93754.69
2023-03-11T04:18:06.884Z,93758.56
2023-03-11T04:20:34.510Z,93760.03
2023-03-11T04:23:02.180Z,93748.44
2023-03-11T04:25:29.817Z,93757.31
2023-03-11T04:27:58.879Z,93759.34
2023-03-11T04:30:26.587Z,93757.91
2023-03-11T04:32:54.274Z,93758.94
2023-03-11T04:35:21.946Z,93756.91
2023-03-11T04:37:49.654Z,93768.50
2023-03-11T04:40:18.186Z,93770.50
2023-03-11T04:42:45.795Z,93770.31
2023-03-11T04:45:15.041Z,93764.75
2023-03-11T04:47:42.722Z,93766.44
2023-03-11T04:50:11.353Z,93769.72
2023-03-11T04:52:39.392Z,93764.59
2023-03-11T04:55:08.371Z,93770.56
2023-03-11T04:57:36.262Z,93769.38
2023-03-11T05:00:06.966Z,93767.31
2023-03-11T05:02:36.045Z,93772.28
2023-03-11T05:05:03.708Z,93777.19
2023-03-11T05:07:31.422Z,93777.06
2023-03-11T05:09:59.086Z,93787.56
2023-03-11T05:12:27.842Z,93787.94
2023-03-11T05:14:55.479Z,93786.09
2023-03-11T05:17:24.795Z,93780.16
2023-03-11T05:19:54.636Z,93787.78
2023-03-11T05:22:22.579Z,93782.63
2023-03-11T05:24:50.382Z,93790.50
2023-03-11T05:27:19.763Z,93807.59
2023-03-11T05:29:47.442Z,93804.53
2023-03-11T05:32:15.238Z,93809.06
2023-03-11T05:34:43.316Z,93805.78
2023-03-11T05:37:12.558Z,93801.88
2023-03-11T05:39:40.311Z,93797.78
2023-03-11T05:42:08.798Z,93798.81
2023-03-11T05:44:36.505Z,93805.38
2023-03-11T05:47:04.252Z,93814.06
2023-03-11T05:49:32.090Z,93809.94
2023-03-11T05:51:59.817Z,93815.91
2023-03-11T05:54:28.918Z,93816.09
2023-03-11T05:56:56.603Z,93819.41
2023-03-11T05:59:24.342Z,93808.28
2023-03-11T06:01:51.945Z,93805.19
2023-03-11T06:04:19.676Z,93809.94
2023-03-11T06:06:47.404Z,93812.44
2023-03-11T06:09:15.494Z,93811.22
2023-03-11T06:11:44.606Z,93820.88
2023-03-11T06:14:13.748Z,93829.75
2023-03-11T06:16:41.820Z,93842.09
2023-03-11T06:19:09.522Z,93847.63
2023-03-11T06:21:37.264Z,93842.47
2023-03-11T06:24:05.561Z,93854.22
2023-03-11T06:26:33.183Z,93849.88
2023-03-11T06:29:02.162Z,93849.47
2023-03-11T06:31:30.308Z,93854.00
2023-03-11T06:33:59.217Z,93863.69
2023-03-11T06:36:27.067Z,93861.63
2023-03-11T06:38:55.541Z,93863.28
2023-03-11T06:41:23.189Z,93862.28
2023-03-11T06:43:50.910Z,93857.75
2023-03-11T06:46:21.874Z,93863.50
2023-03-11T06:48:52.067Z,93868.03
2023-03-11T06:51:20.560Z,93875.47
2023-03-11T06:53:50.176Z,93882.03
2023-03-11T06:56:17.903Z,93883.50
2023-03-11T06:58:45.744Z,93885.31
2023-03-11T07:01:15.074Z,93895.22
2023-03-11T07:03:44.464Z,93885.50
2023-03-11T07:06:14.394Z,93902.59
2023-03-11T07:08:42.149Z,93902.78
2023-03-11T07:11:11.638Z,93903.22
2023-03-11T07:13:39.662Z,93918.84
2023-03-11T07:16:09.461Z,93919.47
2023-03-11T07:18:37.785Z,93932.84
2023-03-11T07:21:08.456Z,93924.41
2023-03-11T07:23:36.713Z,93931.81
2023-03-11T07:26:04.933Z,93936.13
2023-03-11T07:28:32.667Z,93942.94
2023-03-11T07:31:00.897Z,93955.72
2023-03-11T07:33:28.870Z,93948.09
2023-03-11T07:35:56.530Z,93961.47
2023-03-11T07:38:25.705Z,93956.31
2023-03-11T07:40:59.287Z,93957.13
2023-03-11T07:43:27.002Z,93961.59
2023-03-11T07:46:03.486Z,93965.09
2023-03-11T07:48:31.387Z,93973.72
2023-03-11T07:51:07.364Z,93973.94
2023-03-11T07:53:36.929Z,93970.06
2023-03-11T07:56:05.461Z,93974.16
2023-03-11T07:58:33.218Z,93977.41
2023-03-11T08:01:04.732Z,93983.72
2023-03-11T08:03:32.478Z,93972.44
2023-03-11T08:06:00.220Z,93975.69
2023-03-11T08:08:27.977Z,93981.50
2023-03-11T08:10:57.052Z,93985.31
2023-03-11T08:13:24.960Z,93983.75
2023-03-11T08:15:52.633Z,93990.44
2023-03-11T08:18:20.304Z,93990.31
2023-03-11T08:20:47.968Z,93984.28
2023-03-11T08:23:15.598Z,93995.28
2023-03-11T08:25:43.319Z,93999.13
2023-03-11T08:28:12.370Z,94002.81
2023-03-11T08:30:41.996Z,93999.38
2023-03-11T08:33:09.763Z,93997.34
2023-03-11T08:35:37.849Z,93991.44
2023-03-11T08:38:05.819Z,94004.00
2023-03-11T08:40:33.532Z,93996.47
2023-03-11T08:43:01.131Z,93999.94
2023-03-11T08:45:30.213Z,94011.81
2023-03-11T08:47:57.852Z,94017.91
2023-03-11T08:50:25.550Z,94014.56
2023-03-11T08:52:55.093Z,94018.88
2023-03-11T08:55:25.954Z,94010.56
2023-03-11T08:57:53.610Z,94011.91
2023-03-11T09:00:22.148Z,94006.25
2023-03-11T09:02:51.219Z,94016.63
2023-03-11T09:05:18.993Z,94022.25
2023-03-11T09:07:46.652Z,94013.50
2023-03-11T09:10:14.992Z,94011.25
2023-03-11T09:12:42.742Z,94009.09
2023-03-11T09:15:10.975Z,94006.09
2023-03-11T09:17:38.655Z,94011.66
2023-03-11T09:20:09.017Z,94007.06
2023-03-11T09:22:36.666Z,94018.34
2023-03-11T09:25:04.403Z,94011.13
2023-03-11T09:27:32.032Z,94019.97
2023-03-11T09:29:59.627Z,94019.91
2023-03-11T09:32:27.278Z,94024.63
2023-03-11T09:34:54.990Z,94017.00
2023-03-11T09:37:23.992Z,94017.81
2023-03-11T09:39:51.659Z,94019.63
2023-03-11T09:42:22.814Z,94022.31
2023-03-11T09:44:55.982Z,94025.00
2023-03-11T09:47:34.469Z,94020.25
2023-03-11T09:50:19.199Z,94019.59
2023-03-11T09:52:53.623Z,94022.66
2023-03-11T09:55:40.641Z,94029.31
2023-03-11T09:58:14.838Z,94036.00
2023-03-11T10:00:43.110Z,94043.47
2023-03-11T10:03:19.627Z,94029.13
2023-03-11T10:05:47.391Z,94034.47
2023-03-11T10:08:22.516Z,94032.28
2023-03-11T10:10:53.940Z,94040.56
2023-03-11T10:13:26.256Z,94032.72
2023-03-11T10:15:57.358Z,94036.22
2023-03-11T10:18:35.999Z,94042.91
2023-03-11T10:21:08.856Z,94037.72
2023-03-11T10:23:49.996Z,94045.41
2023-03-11T10:26:21.768Z,94035.19
2023-03-11T10:28:52.312Z,94040.97
2023-03-11T10:31:23.029Z,94040.00
2023-03-11T10:33:54.167Z,94039.06
2023-03-11T10:36:26.511Z,94048.28
2023-03-11T10:38:56.760Z,94052.66
2023-03-11T10:41:28.813Z,94046.41
2023-03-11T10:44:02.960Z,94053.06
2023-03-11T10:46:30.906Z,94048.06
2023-03-11T10:48:58.661Z,94047.56
2023-03-11T10:51:28.378Z,94048.50
2023-03-11T10:53:58.883Z,94056.03
2023-03-11T10:56:29.633Z,94051.81
2023-03-11T10:58:57.544Z,94046.91
2023-03-11T11:01:25.653Z,94049.53
2023-03-11T11:03:55.817Z,94055.31
2023-03-11T11:06:27.089Z,94039.63
2023-03-11T11:09:19.309Z,94048.06
2023-03-11T11:12:02.784Z,94039.06
2023-03-11T11:14:43.708Z,94042.41
2023-03-11T11:17:18.826Z,94045.28
2023-03-11T11:19:46.722Z,94062.06
2023-03-11T11:22:17.865Z,94054.06
2023-03-11T11:24:47.741Z,94060.38
2023-03-11T11:27:19.458Z,94047.00
2023-03-11T11:29:47.800Z,94044.78
2023-03-11T11:32:20.980Z,94046.00
2023-03-11T11:34:56.564Z,94042.81
2023-03-11T11:37:26.852Z,94042.50
2023-03-11T11:40:00.091Z,94036.47
2023-03-11T11:42:29.680Z,94036.31
2023-03-11T11:45:00.743Z,94034.06
2023-03-11T11:47:31.551Z,94030.69
2023-03-11T11:50:02.548Z,94036.75
2023-03-11T11:52:32.847Z,94032.69
2023-03-11T11:55:03.577Z,94035.59
2023-03-11T11:57:31.367Z,94033.03
2023-03-11T11:59:59.138Z,94042.78
2023-03-11T12:02:42.318Z,94023.13
2023-03-11T12:05:11.983Z,94020.91
2023-03-11T12:07:49.761Z,94019.56
2023-03-11T12:10:26.826Z,94015.66
2023-03-11T12:13:19.679Z,94023.72
2023-03-11T12:15:51.043Z,94012.94
2023-03-11T12:18:21.630Z,94009.47
2023-03-11T12:20:53.437Z,94011.41
2023-03-11T12:23:27.183Z,93995.69
2023-03-11T12:26:05.133Z,94014.66
2023-03-11T12:28:39.203Z,94006.09
2023-03-11T12:31:10.492Z,94003.31
2023-03-11T12:33:39.797Z,94004.03
2023-03-11T12:36:10.316Z,93999.09
2023-03-11T12:38:40.052Z,93993.97
2023-03-11T12:41:27.108Z,94004.34
2023-03-11T12:44:06.434Z,93997.16
2023-03-11T12:47:02.818Z,93998.28
2023-03-11T12:49:31.615Z,93999.47
2023-03-11T12:52:06.670Z,93993.16
2023-03-11T12:54:35.677Z,93988.16
2023-03-11T12:57:24.279Z,93991.00
2023-03-11T13:00:25.377Z,93990.94
2023-03-11T13:03:29.698Z,93987.47
2023-03-11T13:06:02.120Z,93988.84
2023-03-11T13:08:33.995Z,93995.56
2023-03-11T13:11:01.608Z,93982.84
2023-03-11T13:13:48.283Z,93986.81
2023-03-11T13:16:38.658Z,93978.97
2023-03-11T13:19:35.176Z,93984.34
2023-03-11T13:22:03.650Z,93987.84
2023-03-11T13:24:50.098Z,93989.41
2023-03-11T13:27:28.665Z,93991.66
2023-03-11T13:30:02.009Z,93993.53
2023-03-11T13:32:39.136Z,93988.16
2023-03-11T13:35:18.073Z,93989.44
2023-03-11T13:37:52.845Z,93991.44
2023-03-11T13:40:30.275Z,93990.84
2023-03-11T13:43:04.105Z,93996.69
2023-03-11T13:45:35.693Z,93995.63
2023-03-11T13:48:05.288Z,93992.56
2023-03-11T13:50:36.956Z,94003.91
2023-03-11T13:53:09.124Z,94004.97
2023-03-11T13:55:36.937Z,94010.59
2023-03-11T13:58:15.718Z,94009.47
2023-03-11T14:00:50.546Z,93999.94
2023-03-11T14:03:22.118Z,94001.91
2023-03-11T14:05:51.912Z,94003.94
2023-03-11T14:08:23.204Z,94005.34
2023-03-11T14:10:55.236Z,94002.25
2023-03-11T14:13:23.892Z,94003.84
2023-03-11T14:16:01.911Z,94008.63
2023-03-11T14:18:35.902Z,93999.13
2023-03-11T14:21:05.286Z,94000.03
2023-03-11T14:23:36.637Z,94002.84
2023-03-11T14:26:07.839Z,94007.16
2023-03-11T14:28:38.671Z,94008.75
2023-03-11T14:31:08.120Z,94007.50
2023-03-11T14:33:35.860Z,94011.50
2023-03-11T14:36:05.688Z,94020.63
2023-03-11T14:38:34.140Z,94016.25
2023-03-11T14:41:03.288Z,94016.44
2023-03-11T14:43:34.139Z,94024.16
2023-03-11T14:46:02.223Z,94021.72
2023-03-11T14:48:33.384Z,94028.50
2023-03-11T14:51:02.420Z,94033.31
2023-03-11T14:53:32.200Z,94028.84
2023-03-11T14:56:00.942Z,94034.19
2023-03-11T14:58:34.449Z,94028.41
2023-03-11T15:01:06.537Z,94032.38
2023-03-11T15:03:36.990Z,94037.94
2023-03-11T15:06:08.085Z,94030.91
2023-03-11T15:08:39.156Z,94032.09
2023-03-11T15:11:09.528Z,94039.09
2023-03-11T15:13:37.803Z,94037.34
2023-03-11T15:16:07.419Z,94035.34
2023-03-11T15:18:38.609Z,94036.94
2023-03-11T15:21:12.491Z,94042.72
2023-03-11T15:23:40.803Z,94051.78
2023-03-11T15:26:18.706Z,94041.06
2023-03-11T15:28:46.492Z,94044.16
2023-03-11T15:31:19.120Z,94047.84
2023-03-11T15:33:48.654Z,94044.78
2023-03-11T15:36:33.201Z,94043.34
2023-03-11T15:39:15.514Z,94046.84
2023-03-11T15:41:43.130Z,94043.03
2023-03-11T15:44:24.277Z,94047.63
2023-03-11T15:46:53.000Z,94052.31
2023-03-11T15:49:22.014Z,94042.31
2023-03-11T15:51:49.638Z,94050.19
2023-03-11T15:54:17.225Z,94051.72
2023-03-11T15:56:45.290Z,94053.84
2023-03-11T15:59:15.462Z,94068.97
2023-03-11T16:01:43.497Z,94064.78
2023-03-11T16:04:15.099Z,94070.53
2023-03-11T16:06:44.705Z,94070.25
2023-03-11T16:09:12.868Z,94063.31
2023-03-11T16:11:41.453Z,94053.16
2023-03-11T16:14:15.028Z,94052.00
2023-03-11T16:16:42.843Z,94058.56
2023-03-11T16:19:10.531Z,94058.09
2023-03-11T16:21:41.236Z,94054.91
2023-03-11T16:24:14.446Z,94056.25
2023-03-11T16:26:42.230Z,94064.91
2023-03-11T16:29:18.997Z,94070.81
2023-03-11T16:31:48.929Z,94083.09
2023-03-11T16:34:16.599Z,94094.09
2023-03-11T16:36:44.252Z,94090.53
2023-03-11T16:39:14.504Z,94093.22
2023-03-11T16:41:43.906Z,94100.19
2023-03-11T16:44:11.606Z,94106.66
2023-03-11T16:46:39.430Z,94112.94
2023-03-11T16:49:07.329Z,94114.34
2023-03-11T16:51:35.418Z,94114.34
2023-03-11T16:54:03.231Z,94128.88
2023-03-11T16:56:32.260Z,94120.88
2023-03-11T16:59:01.147Z,94122.41
2023-03-11T17:01:28.890Z,94127.66
2023-03-11T17:03:56.630Z,94141.09
2023-03-11T17:06:24.375Z,94143.06
2023-03-11T17:08:52.088Z,94142.09
2023-03-11T17:11:21.488Z,94134.47
2023-03-11T17:13:51.021Z,94143.94
2023-03-11T17:16:18.720Z,94145.88
2023-03-11T17:18:46.445Z,94156.78
2023-03-11T17:21:15.767Z,94160.06
2023-03-11T17:23:43.828Z,94164.19
2023-03-11T17:26:13.078Z,94169.97
2023-03-11T17:28:41.061Z,94175.28
2023-03-11T17:31:13.380Z,94170.47
2023-03-11T17:33:41.279Z,94184.66
2023-03-11T17:36:10.549Z,94195.19
2023-03-11T17:38:38.231Z,94197.03
2023-03-11T17:41:10.058Z,94196.00
2023-03-11T17:43:37.786Z,94193.00
2023-03-11T17:46:07.948Z,94200.03
2023-03-11T17:48:36.918Z,94205.41
2023-03-11T17:51:07.860Z,94209.16
2023-03-11T17:53:37.040Z,94214.47
2023-03-11T17:56:05.536Z,94221.28
2023-03-11T17:58:33.548Z,94217.69
2023-03-11T18:01:04.109Z,94217.09
2023-03-11T18:03:31.900Z,94217.53
2023-03-11T18:06:02.151Z,94230.78
2023-03-11T18:08:30.392Z,94226.22
2023-03-11T18:11:00.876Z,94234.44
2023-03-11T18:13:28.616Z,94239.25
2023-03-11T18:15:59.856Z,94234.88
2023-03-11T18:18:27.583Z,94238.66
2023-03-11T18:20:55.362Z,94228.75
2023-03-11T18:23:24.381Z,94226.88
2023-03-11T18:25:52.456Z,94235.28
2023-03-11T18:28:20.115Z,94239.84
2023-03-11T18:30:47.744Z,94246.00
2023-03-11T18:33:15.388Z,94240.41
2023-03-11T18:35:43.089Z,94247.66
2023-03-11T18:38:11.450Z,94254.28
2023-03-11T18:40:40.550Z,94256.75
2023-03-11T18:43:08.320Z,94253.69
2023-03-11T18:45:35.953Z,94263.03
2023-03-11T18:48:03.618Z,94260.41
2023-03-11T18:50:31.268Z,94253.13
2023-03-11T18:52:59.984Z,94253.34
2023-03-11T18:55:27.656Z,94247.81
2023-03-11T18:57:56.713Z,94261.25
2023-03-11T19:00:24.820Z,94253.41
2023-03-11T19:02:53.378Z,94264.59
2023-03-11T19:05:22.103Z,94273.94
2023-03-11T19:07:49.820Z,94267.53
2023-03-11T19:10:20.035Z,94279.56
2023-03-11T19:12:47.741Z,94280.06
2023-03-11T19:15:17.581Z,94281.31
2023-03-11T19:17:51.707Z,94287.09
2023-03-11T19:20:23.083Z,94283.00
2023-03-11T19:22:50.723Z,94290.03
2023-03-11T19:25:21.088Z,94293.97
2023-03-11T19:27:48.726Z,94291.03
2023-03-11T19:30:18.251Z,94294.16
2023-03-11T19:32:45.934Z,94293.94
2023-03-11T19:35:16.740Z,94303.41
2023-03-11T19:37:44.429Z,94305.69
2023-03-11T19:40:13.330Z,94314.41
2023-03-11T19:42:41.034Z,94318.19
2023-03-11T19:45:09.288Z,94322.66
2023-03-11T19:47:38.630Z,94318.75
2023-03-11T19:50:06.916Z,94326.44
2023-03-11T19:52:36.040Z,94330.78
2023-03-11T19:55:07.610Z,94328.72
2023-03-11T19:57:35.387Z,94329.53
2023-03-11T20:00:03.250Z,94323.13
2023-03-11T20:02:30.976Z,94326.22
2023-03-11T20:05:00.166Z,94336.53
2023-03-11T20:07:27.954Z,94328.72
2023-03-11T20:09:55.649Z,94340.66
2023-03-11T20:12:23.356Z,94337.78
2023-03-11T20:14:51.119Z,94349.56
2023-03-11T20:17:18.912Z,94354.28
2023-03-11T20:19:46.677Z,94351.38
2023-03-11T20:22:15.866Z,94348.50
2023-03-11T20:24:44.713Z,94350.16
2023-03-11T20:27:12.606Z,94350.97
2023-03-11T20:29:40.321Z,94355.53
2023-03-11T20:32:08.045Z,94347.69
2023-03-11T20:34:35.900Z,94349.97
2023-03-11T20:37:03.575Z,94345.22
2023-03-11T20:39:32.588Z,94349.56
2023-03-11T20:42:00.205Z,94346.00
2023-03-11T20:44:27.842Z,94345.81
2023-03-11T20:46:55.779Z,94343.34
2023-03-11T20:49:23.702Z,94346.44
2023-03-11T20:51:51.327Z,94346.44
2023-03-11T20:54:19.080Z,94353.03
2023-03-11T20:56:49.137Z,94354.06
2023-03-11T20:59:16.755Z,94355.13
2023-03-11T21:01:45.843Z,94354.69
2023-03-11T21:04:16.277Z,94362.31
2023-03-11T21:06:44.314Z,94360.06
2023-03-11T21:09:14.073Z,94356.75
2023-03-11T21:11:42.360Z,94358.84
2023-03-11T21:14:11.670Z,94345.63
2023-03-11T21:16:39.526Z,94354.28
2023-03-11T21:19:08.823Z,94349.97
2023-03-11T21:21:37.085Z,94349.34
2023-03-11T21:24:05.255Z,94349.59
2023-03-11T21:26:32.971Z,94354.31
2023-03-11T21:29:00.838Z,94347.72
2023-03-11T21:31:30.221Z,94341.53
2023-03-11T21:33:59.719Z,94351.81
2023-03-11T21:36:27.571Z,94352.03
2023-03-11T21:38:55.617Z,94356.78
2023-03-11T21:41:25.935Z,94356.75
2023-03-11T21:43:55.236Z,94367.09
2023-03-11T21:46:25.087Z,94370.78
2023-03-11T21:48:54.160Z,94378.63
2023-03-11T21:51:22.451Z,94373.47
2023-03-11T21:53:50.380Z,94371.63
2023-03-11T21:56:18.388Z,94379.09
2023-03-11T21:58:53.806Z,94379.47
2023-03-11T22:01:21.861Z,94376.59
2023-03-11T22:03:49.643Z,94383.78
2023-03-11T22:06:18.660Z,94390.38
2023-03-11T22:08:46.523Z,94382.34
2023-03-11T22:11:18.389Z,94372.44
2023-03-11T22:13:46.898Z,94372.47
2023-03-11T22:16:14.719Z,94371.84
2023-03-11T22:18:42.728Z,94360.50
2023-03-11T22:21:11.040Z,94369.16
2023-03-11T22:23:40.221Z,94368.97
2023-03-11T22:26:07.924Z,94370.81
2023-03-11T22:28:35.677Z,94372.25
2023-03-11T22:31:07.636Z,94377.19
2023-03-11T22:33:35.553Z,94379.66
2023-03-11T22:36:07.706Z,94386.47
2023-03-11T22:38:36.901Z,94388.13
2023-03-11T22:41:08.018Z,94377.63
2023-03-11T22:43:36.190Z,94383.19
2023-03-11T22:46:05.116Z,94385.88
2023-03-11T22:48:33.740Z,94383.59
2023-03-11T22:51:02.011Z,94387.13
2023-03-11T22:53:29.779Z,94393.09
2023-03-11T22:55:57.409Z,94384.22
2023-03-11T22:58:26.382Z,94382.78
2023-03-11T23:00:53.969Z,94392.50
2023-03-11T23:03:21.661Z,94389.38
2023-03-11T23:05:49.330Z,94389.59
2023-03-11T23:08:17.288Z,94398.91
2023-03-11T23:10:46.421Z,94393.72
2023-03-11T23:13:14.198Z,94393.53
2023-03-11T23:15:44.672Z,94389.81
2023-03-11T23:18:13.152Z,94390.22
2023-03-11T23:20:42.324Z,94396.00
2023-03-11T23:23:10.933Z,94387.97
2023-03-11T23:25:39.977Z,94384.22
2023-03-11T23:28:08.867Z,94384.03
2023-03-11T23:30:36.768Z,94391.06
2023-03-11T23:33:05.819Z,94390.44
2023-03-11T23:35:33.758Z,94389.38
2023-03-11T23:38:01.892Z,94394.72
2023-03-11T23:40:29.894Z,94385.88
2023-03-11T23:42:57.480Z,94391.25
2023-03-11T23:45:25.125Z,94402.34
2023-03-11T23:47:52.782Z,94408.31
2023-03-11T23:50:21.831Z,94410.19
2023-03-11T23:52:49.464Z,94410.19
2023-03-11T23:55:17.331Z,94404.63
2023-03-11T23:57:44.906Z,94410.38
